createdAt,value
2022-09-07T00:02:51.560Z,56
2022-09-07T00:08:32.289Z,48
2022-09-07T00:14:12.564Z,44
2022-09-07T00:19:52.801Z,48
2022-09-07T00:25:32.916Z,48
2022-09-07T00:31:13.416Z,56
2022-09-07T00:36:54.161Z,50
2022-09-07T00:42:34.315Z,46
2022-09-07T00:48:14.779Z,48
2022-09-07T00:53:55.034Z,44
2022-09-07T00:59:35.209Z,56
2022-09-07T01:05:15.256Z,50
2022-09-07T01:10:58.539Z,56
2022-09-07T01:16:38.733Z,56
2022-09-07T01:22:18.876Z,50
2022-09-07T01:27:59.014Z,48
2022-09-07T01:33:39.161Z,42
2022-09-07T01:39:19.364Z,46
2022-09-07T01:50:40.951Z,46
2022-09-07T01:56:21.042Z,56
2022-09-07T02:02:01.650Z,48
2022-09-07T02:07:42.475Z,44
2022-09-07T02:13:22.625Z,56
2022-09-07T02:19:05.591Z,56
2022-09-07T02:24:54.773Z,56
2022-09-07T02:30:35.444Z,50
2022-09-07T02:36:16.391Z,48
2022-09-07T02:42:00.016Z,56
2022-09-07T02:47:40.158Z,52
2022-09-07T02:53:22.983Z,48
2022-09-07T02:59:03.796Z,46
2022-09-07T03:04:44.058Z,56
2022-09-07T03:10:27.651Z,42
2022-09-07T03:16:09.094Z,50
2022-09-07T03:21:50.929Z,54
2022-09-07T03:27:31.620Z,46
2022-09-07T03:33:12.374Z,56
2022-09-07T03:44:33.037Z,40
2022-09-07T03:50:13.216Z,48
2022-09-07T03:55:53.263Z,68
2022-09-07T04:01:33.915Z,52
2022-09-07T04:07:14.584Z,48
2022-09-07T04:12:57.759Z,56
2022-09-07T04:18:37.939Z,56
2022-09-07T04:24:24.002Z,46
2022-09-07T04:30:04.349Z,48
2022-09-07T04:35:44.545Z,50
2022-09-07T04:41:24.600Z,54
2022-09-07T04:52:42.973Z,48
2022-09-07T04:58:23.217Z,44
2022-09-07T05:04:04.008Z,54
2022-09-07T05:09:44.312Z,46
2022-09-07T05:15:24.550Z,48
2022-09-07T05:21:04.920Z,48
2022-09-07T05:26:45.333Z,56
2022-09-07T05:32:33.434Z,50
2022-09-07T05:38:16.313Z,56
2022-09-07T05:50:27.048Z,44
2022-09-07T05:56:10.259Z,46
2022-09-07T06:01:51.103Z,56
2022-09-07T06:07:31.685Z,48
2022-09-07T06:13:20.907Z,44
2022-09-07T06:19:01.273Z,56
2022-09-07T06:24:41.795Z,46
2022-09-07T06:30:22.178Z,52
2022-09-07T06:36:05.350Z,50
2022-09-07T06:42:00.706Z,60
2022-09-07T06:47:42.423Z,58
2022-09-07T06:53:46.694Z,56
2022-09-07T06:59:28.144Z,46
2022-09-07T07:05:08.249Z,44
2022-09-07T07:10:51.190Z,58
2022-09-07T07:22:49.721Z,54
2022-09-07T07:29:05.597Z,62
2022-09-07T07:34:47.317Z,54
2022-09-07T07:40:39.804Z,56
2022-09-07T07:46:21.315Z,52
2022-09-07T07:53:47.228Z,54
2022-09-07T07:59:28.470Z,36
2022-09-07T08:05:09.778Z,4
2022-09-07T08:10:53.723Z,2
2022-09-07T08:16:34.714Z,10
2022-09-07T08:22:18.056Z,14
2022-09-07T08:27:58.440Z,10
2022-09-07T08:33:38.737Z,10
2022-09-07T08:39:21.630Z,18
2022-09-07T08:45:02.250Z,12
2022-09-07T08:50:42.867Z,8
2022-09-07T09:06:12.097Z,4
2022-09-07T09:11:54.518Z,0
2022-09-07T09:17:35.216Z,4
2022-09-07T09:28:56.287Z,2
2022-09-07T09:34:36.647Z,52
2022-09-07T09:40:16.993Z,52
2022-09-07T09:46:13.835Z,50
2022-09-07T09:52:43.819Z,46
2022-09-07T10:00:02.949Z,0
2022-09-07T10:06:00.019Z,4
2022-09-07T10:12:09.453Z,0
2022-09-07T10:17:50.631Z,62
2022-09-07T10:23:33.393Z,52
2022-09-07T10:29:16.483Z,54
2022-09-07T10:34:57.853Z,14
2022-09-07T10:40:37.752Z,48
2022-09-07T10:46:58.761Z,46
2022-09-07T10:52:39.694Z,58
2022-09-07T11:04:02.034Z,52
2022-09-07T11:09:43.221Z,0
2022-09-07T11:15:24.897Z,0
2022-09-07T11:21:05.485Z,0
2022-09-07T11:26:47.012Z,0
2022-09-07T11:32:27.380Z,0
2022-09-07T11:38:08.256Z,0
2022-09-07T11:43:50.494Z,4
2022-09-07T11:49:33.024Z,0
2022-09-07T11:55:16.299Z,22
2022-09-07T12:00:56.678Z,20
2022-09-07T12:06:38.077Z,26
2022-09-07T12:12:19.435Z,0
2022-09-07T12:18:00.158Z,0
2022-09-07T12:23:43.551Z,0
2022-09-07T12:29:23.829Z,0
2022-09-07T12:35:04.482Z,0
2022-09-07T12:40:46.458Z,0
2022-09-07T12:46:30.673Z,6
2022-09-07T12:52:16.594Z,0
2022-09-07T12:57:57.200Z,2
2022-09-07T13:03:56.418Z,0
2022-09-07T13:09:46.705Z,2
2022-09-07T13:15:28.456Z,0
2022-09-07T13:21:15.911Z,0
2022-09-07T13:26:56.523Z,0
2022-09-07T13:33:16.215Z,0
2022-09-07T13:39:15.933Z,2
2022-09-07T13:44:58.928Z,2
2022-09-07T13:50:39.824Z,8
2022-09-07T13:56:20.758Z,0
2022-09-07T14:02:03.565Z,0
2022-09-07T14:07:47.687Z,62
2022-09-07T14:13:32.543Z,60
2022-09-07T14:19:17.150Z,42
2022-09-07T14:24:59.232Z,60
2022-09-07T14:30:41.026Z,58
2022-09-07T14:36:47.594Z,60
2022-09-07T14:42:30.035Z,62
2022-09-07T14:48:12.876Z,62
2022-09-07T14:53:54.298Z,60
2022-09-07T14:59:35.571Z,54
2022-09-07T15:05:18.650Z,60
2022-09-07T15:11:37.980Z,62
2022-09-07T15:17:53.920Z,62
2022-09-07T15:23:37.156Z,56
2022-09-07T15:29:17.832Z,54
2022-09-07T15:34:58.872Z,42
2022-09-07T15:41:24.813Z,54
2022-09-07T15:47:53.353Z,58
2022-09-07T15:54:14.653Z,58
2022-09-07T15:59:55.189Z,56
2022-09-07T16:05:35.687Z,58
2022-09-07T16:11:24.292Z,58
2022-09-07T16:17:47.957Z,62
2022-09-07T16:23:34.395Z,64
2022-09-07T16:29:14.824Z,62
2022-09-07T16:34:54.910Z,56
2022-09-07T16:40:35.104Z,58
2022-09-07T16:46:19.355Z,46
2022-09-07T16:51:59.711Z,54
2022-09-07T16:58:40.273Z,56
2022-09-07T17:04:21.904Z,50
2022-09-07T17:10:02.154Z,60
2022-09-07T17:15:42.429Z,52
2022-09-07T17:21:22.477Z,54
2022-09-07T17:27:02.690Z,56
2022-09-07T17:32:43.361Z,54
2022-09-07T17:39:26.646Z,52
2022-09-07T17:45:07.502Z,60
2022-09-07T17:50:47.723Z,56
2022-09-07T17:56:28.200Z,56
2022-09-07T18:02:09.058Z,50
2022-09-07T18:07:50.821Z,50
2022-09-07T18:13:38.032Z,58
2022-09-07T18:19:19.719Z,60
2022-09-07T18:25:00.056Z,56
2022-09-07T18:30:40.466Z,56
2022-09-07T18:36:20.570Z,50
2022-09-07T18:42:00.999Z,50
2022-09-07T18:47:43.970Z,48
2022-09-07T18:53:26.889Z,58
2022-09-07T18:59:10.835Z,46
2022-09-07T19:05:53.298Z,56
2022-09-07T19:11:34.197Z,56
2022-09-07T19:17:14.156Z,56
2022-09-07T19:22:54.502Z,52
2022-09-07T19:28:37.235Z,58
2022-09-07T19:34:18.284Z,46
2022-09-07T19:39:58.907Z,58
2022-09-07T19:45:39.336Z,46
2022-09-07T19:51:19.747Z,44
2022-09-07T19:57:00.463Z,44
2022-09-07T20:02:40.945Z,56
2022-09-07T20:08:24.630Z,58
2022-09-07T20:19:48.440Z,56
2022-09-07T20:25:28.625Z,50
2022-09-07T20:31:09.577Z,46
2022-09-07T20:36:49.998Z,50
2022-09-07T20:42:30.504Z,58
2022-09-07T20:48:11.214Z,54
2022-09-07T20:53:58.474Z,52
2022-09-07T20:59:42.954Z,52
2022-09-07T21:05:23.443Z,60
2022-09-07T21:11:06.532Z,50
2022-09-07T21:17:01.294Z,40
2022-09-07T21:22:42.120Z,50
2022-09-07T21:28:22.396Z,52
2022-09-07T21:34:02.896Z,54
2022-09-07T21:39:46.765Z,44
2022-09-07T21:45:28.559Z,52
2022-09-07T21:51:09.130Z,50
2022-09-07T21:56:49.637Z,48
2022-09-07T22:08:11.460Z,40
2022-09-07T22:13:52.257Z,54
2022-09-07T22:19:32.837Z,56
2022-09-07T22:25:13.112Z,48
2022-09-07T22:30:53.363Z,56
2022-09-07T22:36:33.803Z,56
2022-09-07T22:42:14.672Z,42
2022-09-07T22:48:05.636Z,46
2022-09-07T22:53:50.680Z,56
2022-09-07T22:59:35.387Z,46
2022-09-07T23:05:15.990Z,46
2022-09-07T23:10:56.293Z,48
2022-09-07T23:16:37.262Z,48
2022-09-07T23:22:18.045Z,44
2022-09-07T23:27:58.232Z,60
2022-09-07T23:33:38.322Z,56
2022-09-07T23:44:58.486Z,48
2022-09-07T23:50:39.358Z,54
2022-09-07T23:56:20.194Z,56
